createdAt,value
2023-01-08T11:01:47.746Z,9.75
2023-01-08T11:04:55.013Z,9.83
2023-01-08T11:08:05.860Z,9.97
2023-01-08T11:11:13.469Z,10.11
2023-01-08T11:14:26.747Z,10.27
2023-01-08T11:17:34.099Z,10.40
2023-01-08T11:20:42.095Z,10.53
2023-01-08T11:23:49.340Z,10.67
2023-01-08T11:26:59.136Z,10.81
2023-01-08T11:30:08.583Z,10.95
2023-01-08T11:33:19.925Z,11.08
2023-01-08T11:36:31.669Z,11.18
2023-01-08T11:39:39.148Z,11.28
2023-01-08T11:42:57.598Z,11.39
2023-01-08T11:46:31.512Z,11.49
2023-01-08T11:50:00.006Z,11.57
2023-01-08T11:53:18.766Z,11.63
2023-01-08T11:56:41.125Z,11.69
2023-01-08T12:00:03.244Z,11.75
2023-01-08T12:03:27.430Z,11.70
2023-01-08T12:06:42.913Z,11.08
2023-01-08T12:09:54.470Z,10.55
2023-01-08T12:13:14.779Z,10.31
2023-01-08T12:16:39.135Z,10.68
2023-01-08T12:20:00.119Z,11.04
2023-01-08T12:23:21.077Z,11.28
2023-01-08T12:26:35.758Z,11.49
2023-01-08T12:30:09.543Z,11.65
2023-01-08T12:33:34.780Z,11.81
2023-01-08T12:36:45.530Z,11.92
2023-01-08T12:40:01.190Z,11.98
2023-01-08T12:43:14.446Z,11.59
2023-01-08T12:46:21.657Z,11.09
2023-01-08T12:49:35.901Z,10.87
2023-01-08T12:52:50.691Z,11.24
2023-01-08T12:56:06.279Z,11.63
2023-01-08T12:59:26.355Z,11.87
2023-01-08T13:02:40.676Z,11.92
2023-01-08T13:05:47.076Z,11.44
2023-01-08T13:08:55.067Z,11.02
2023-01-08T13:12:02.505Z,10.84
2023-01-08T13:15:20.732Z,11.24
2023-01-08T13:18:26.900Z,11.62
2023-01-08T13:21:39.077Z,11.86
2023-01-08T13:24:45.321Z,12.05
2023-01-08T13:27:51.741Z,12.11
2023-01-08T13:31:09.356Z,11.66
2023-01-08T13:34:36.900Z,11.20
2023-01-08T13:37:43.383Z,10.88
2023-01-08T13:40:57.782Z,10.78
2023-01-08T13:44:06.603Z,11.20
2023-01-08T13:47:23.597Z,11.59
2023-01-08T13:50:30.717Z,11.85
2023-01-08T13:53:38.015Z,12.02
2023-01-08T13:56:45.997Z,12.06
2023-01-08T13:59:57.371Z,11.58
2023-01-08T14:03:03.708Z,11.09
2023-01-08T14:06:16.339Z,10.74
2023-01-08T14:09:25.289Z,10.57
2023-01-08T14:12:31.692Z,10.92
2023-01-08T14:15:39.880Z,11.22
2023-01-08T14:18:47.462Z,11.40
2023-01-08T14:21:56.360Z,11.51
2023-01-08T14:25:07.778Z,11.58
2023-01-08T14:28:20.087Z,11.52
2023-01-08T14:31:28.149Z,10.96
2023-01-08T14:34:39.180Z,10.40
2023-01-08T14:37:45.411Z,9.96
2023-01-08T14:41:01.717Z,9.73
2023-01-08T14:44:14.044Z,10.03
2023-01-08T14:47:22.008Z,10.32
2023-01-08T14:50:30.264Z,10.50
2023-01-08T14:53:39.507Z,10.60
2023-01-08T14:56:48.822Z,10.67
2023-01-08T14:59:58.117Z,10.72
2023-01-08T15:03:04.364Z,10.76
2023-01-08T15:06:12.048Z,10.78
2023-01-08T15:09:35.954Z,10.77
2023-01-08T15:12:42.119Z,10.74
2023-01-08T15:15:57.191Z,10.72
2023-01-08T15:19:08.762Z,10.71
2023-01-08T15:22:20.522Z,10.29
2023-01-08T15:25:29.445Z,9.54
2023-01-08T15:28:35.746Z,8.95
2023-01-08T15:31:50.474Z,8.64
2023-01-08T15:34:56.599Z,8.89
2023-01-08T15:38:02.818Z,9.11
2023-01-08T15:41:10.764Z,9.21
2023-01-08T15:44:16.972Z,9.24
2023-01-08T15:47:23.152Z,9.25
2023-01-08T15:50:32.425Z,9.26
2023-01-08T15:53:38.481Z,9.28
2023-01-08T15:56:44.889Z,9.28
2023-01-08T15:59:49.350Z,9.27
2023-01-08T16:02:56.451Z,9.22
2023-01-08T16:06:06.601Z,9.21
2023-01-08T16:09:12.830Z,9.16
2023-01-08T16:12:18.994Z,9.09
2023-01-08T16:15:25.169Z,9.02
2023-01-08T16:18:31.439Z,8.92
2023-01-08T16:21:35.996Z,8.84
2023-01-08T16:24:42.232Z,8.78
2023-01-08T16:27:48.443Z,8.75
2023-01-08T16:30:54.904Z,8.68
2023-01-08T16:34:05.372Z,8.63
2023-01-08T16:37:11.619Z,8.60
2023-01-08T16:40:19.294Z,8.57
2023-01-08T16:43:25.920Z,8.52
2023-01-08T16:46:32.134Z,8.47
2023-01-08T16:49:39.800Z,8.42
2023-01-08T16:52:47.743Z,8.37
2023-01-08T16:55:53.966Z,8.34
2023-01-08T16:59:00.119Z,8.32
2023-01-08T17:02:06.727Z,8.26
2023-01-08T17:05:13.125Z,8.18
2023-01-08T17:08:19.942Z,8.11
2023-01-08T17:11:26.322Z,8.02
2023-01-08T17:14:31.331Z,7.99
2023-01-08T17:17:37.809Z,7.91
2023-01-08T17:20:43.977Z,7.88
2023-01-08T17:23:50.207Z,7.81
2023-01-08T17:26:58.281Z,7.76
2023-01-08T17:30:04.755Z,7.70
2023-01-08T17:33:13.976Z,7.65
2023-01-08T17:36:22.873Z,7.62
2023-01-08T17:39:29.307Z,7.58
2023-01-08T17:42:33.867Z,7.55
2023-01-08T17:45:42.110Z,7.50
2023-01-08T17:48:49.076Z,7.46
2023-01-08T17:51:57.103Z,7.39
2023-01-08T17:55:03.294Z,7.32
2023-01-08T17:58:09.813Z,7.26
2023-01-08T18:01:16.083Z,7.21
2023-01-08T18:04:20.671Z,7.16
2023-01-08T18:07:26.886Z,7.08
2023-01-08T18:10:33.236Z,7.03
2023-01-08T18:13:39.690Z,6.97
2023-01-08T18:16:49.759Z,6.91
2023-01-08T18:19:56.011Z,6.86
2023-01-08T18:23:02.112Z,6.78
2023-01-08T18:26:12.223Z,6.73
2023-01-08T18:29:18.722Z,6.70
2023-01-08T18:32:26.206Z,6.66
2023-01-08T18:35:33.524Z,6.61
2023-01-08T18:38:44.183Z,6.57
2023-01-08T18:42:07.850Z,6.52
2023-01-08T18:45:15.179Z,6.51
2023-01-08T18:48:21.219Z,6.47
2023-01-08T18:51:28.686Z,6.47
2023-01-08T18:54:35.549Z,6.47
2023-01-08T18:57:41.866Z,6.48
2023-01-08T19:00:48.446Z,6.48
2023-01-08T19:03:55.744Z,6.45
2023-01-08T19:07:04.595Z,6.42
2023-01-08T19:10:16.010Z,6.40
2023-01-08T19:13:22.735Z,6.38
2023-01-08T19:16:30.149Z,6.33
2023-01-08T19:19:38.995Z,6.28
2023-01-08T19:22:45.708Z,6.23
2023-01-08T19:25:52.979Z,6.19
2023-01-08T19:28:59.549Z,6.15
2023-01-08T19:32:07.876Z,6.10
2023-01-08T19:35:22.341Z,6.02
2023-01-08T19:38:29.687Z,5.96
2023-01-08T19:41:56.864Z,5.93
2023-01-08T19:45:03.441Z,5.93
2023-01-08T19:48:10.427Z,5.93
2023-01-08T19:51:18.236Z,5.93
2023-01-08T19:54:25.993Z,5.91
2023-01-08T19:57:32.207Z,5.91
2023-01-08T20:00:39.673Z,5.90
2023-01-08T20:03:46.591Z,5.90
2023-01-08T20:06:53.583Z,5.89
2023-01-08T20:10:04.080Z,5.87
2023-01-08T20:13:10.496Z,5.88
2023-01-08T20:16:18.887Z,5.87
2023-01-08T20:19:28.940Z,5.85
2023-01-08T20:22:35.198Z,5.82
2023-01-08T20:25:42.077Z,5.79
2023-01-08T20:28:52.001Z,5.77
2023-01-08T20:31:59.499Z,5.75
2023-01-08T20:35:06.603Z,5.72
2023-01-08T20:38:12.797Z,5.72
2023-01-08T20:41:19.273Z,5.72
2023-01-08T20:44:26.040Z,5.71
2023-01-08T20:47:35.011Z,5.66
2023-01-08T20:50:44.947Z,5.59
2023-01-08T20:53:51.465Z,5.53
2023-01-08T20:56:59.529Z,5.49
2023-01-08T21:00:06.861Z,5.49
2023-01-08T21:03:13.553Z,5.46
2023-01-08T21:06:21.220Z,5.40
2023-01-08T21:09:28.480Z,5.37
2023-01-08T21:12:35.763Z,5.39
2023-01-08T21:15:41.984Z,5.40
2023-01-08T21:18:48.643Z,5.42
2023-01-08T21:21:54.873Z,5.43
2023-01-08T21:25:01.165Z,5.40
2023-01-08T21:28:08.646Z,5.31
2023-01-08T21:31:16.803Z,5.22
2023-01-08T21:34:23.036Z,5.20
2023-01-08T21:37:30.338Z,5.24
2023-01-08T21:40:36.568Z,5.28
2023-01-08T21:43:59.936Z,5.31
2023-01-08T21:47:08.440Z,5.35
2023-01-08T21:50:15.268Z,5.39
2023-01-08T21:53:36.159Z,5.39
2023-01-08T21:56:42.724Z,5.40
2023-01-08T21:59:51.831Z,5.42
2023-01-08T22:02:58.139Z,5.45
2023-01-08T22:06:03.435Z,5.46
2023-01-08T22:09:09.758Z,5.40
2023-01-08T22:12:15.151Z,5.37
2023-01-08T22:15:21.642Z,5.31
2023-01-08T22:18:27.923Z,5.32
2023-01-08T22:21:34.153Z,5.33
2023-01-08T22:24:41.054Z,5.35
2023-01-08T22:27:51.239Z,5.39
2023-01-08T22:30:57.863Z,5.44
2023-01-08T22:34:04.138Z,5.48
2023-01-08T22:37:10.410Z,5.53
2023-01-08T22:40:17.397Z,5.57
2023-01-08T22:43:23.657Z,5.58
2023-01-08T22:46:29.942Z,5.58
2023-01-08T22:49:34.659Z,5.56
2023-01-08T22:52:41.034Z,5.54
2023-01-08T22:55:46.993Z,5.56
2023-01-08T22:58:51.820Z,5.53
2023-01-08T23:01:58.048Z,5.53
2023-01-08T23:05:05.019Z,5.54
2023-01-08T23:08:11.960Z,5.50
2023-01-08T23:11:20.373Z,5.45
2023-01-08T23:14:26.633Z,5.41
2023-01-08T23:17:38.906Z,5.41
2023-01-08T23:20:50.819Z,5.39
2023-01-08T23:23:55.348Z,5.39
2023-01-08T23:27:01.599Z,5.32
2023-01-08T23:30:09.565Z,5.31
2023-01-08T23:33:15.803Z,5.31
2023-01-08T23:36:22.955Z,5.26
2023-01-08T23:39:29.235Z,5.22
2023-01-08T23:42:35.710Z,5.20
2023-01-08T23:45:42.178Z,5.17
2023-01-08T23:48:51.062Z,5.12
2023-01-08T23:51:57.811Z,5.07
2023-01-08T23:55:04.102Z,5.01
2023-01-08T23:58:08.563Z,5.00
